Startpagina
METAR-TAF:

METAR-TAF

Vliegvelden :

Flughafen Köln-Bonn

Keulen, Duitsland

breedte: 50-52N, lengte: 007-10E, hoogte: 91 m

Actueel weer

Dit bericht is 23 minuten geleden gemaakt, om 23:20 UTC
Wind 6 kt uit het noordnoordwesten
Temperatuur 13°C
Vochtigheid 77%
Druk 1025 hPa
Zicht 10 km of meer
Verspreide wolken op 3300 ft

METAR: EDDK 122320Z 34006KT 9999 SCT033 13/09 Q1025 NOSIG

Tijdstip: 01:43 (23:43 UTC)

Verwachting

Dit bericht is 43 minuten geleden gemaakt, om 23:00 UTC
Verwachting geldig van 13 om 00 UTC tot 14 om 06 UTC
Wind 5 kt uit het noordnoordwesten
Zicht 10 km of meer
geen wolken onder 1500 m en geen cumulonimbus
Tijdelijke
van 13 om 02 UTC tot 13 om 06 UTC
Wind 3 kt uit variabele richting
Wijzigt naar
van 13 om 17 UTC tot 13 om 20 UTC
Wind 5 kt uit het oostnoordoosten
Wijzigt naar
van 13 om 21 UTC tot 13 om 24 UTC
Wind 4 kt uit het oostzuidoosten

TAF: EDDK 122300Z 1300/1406 34005KT CAVOK TEMPO 1302/1306 VRB03KT BECMG 1317/1320 06005KT BECMG 1321/1324 12004KT

Waarnemingen en weersverwachtingen van meer dan 4000 vliegvelden (METAR en TAF).

De beschikbare stations zijn de gele en rode punten op de kaart.

Ga met uw muis naar het station om de naam te zien.

Klik dan om waarnemingen en weersverwachtingen te zien.

kaart wijzigen: klik op de groene knoppen met een zwart kruis om in te zoomen, op de groene knop met een streepje om uit te zoomen of op de groene pijlen voor aangrenzende kaarten.


METAR-TAF: